Laguna Larga, Argentina
Current Conditions -  °F | °C
As of 3:00 PM on Sunday 23 Nov 2014 (Local Time) from SACO Reporting Station
Scattered Clouds Scattered Clouds  
Wind Chill: 31°   Ceiling: Unl
Heat Index: 31°   Visibility: 6mi
Dew Point: 14°   Wind: 25mph
Humidity: 35%   Direction: 360°N
Pressure: 29.77"   Gusts: 37mph
Location:  31.77°S, 63.8°W
Report Text: SACO 231800Z 36022G32KT 9999 SCT03031/14 Q1008
Loading
Personal Weather Stations






























Interactive Weather Map New forecast layout! Learn more

10-Day Weather Forecast

Advertisements
Track Severe Weather on mobile